sensor_id;sensor_type;location;lat;lon;timestamp;temperature;humidity
11538;DHT22;50159;49.426;11.182;2023-05-02T00:01:13;6.90;99.90
11538;DHT22;50159;49.426;11.182;2023-05-02T00:03:40;6.90;99.90
11538;DHT22;50159;49.426;11.182;2023-05-02T00:06:08;6.90;99.90
11538;DHT22;50159;49.426;11.182;2023-05-02T00:08:35;6.80;99.90
11538;DHT22;50159;49.426;11.182;2023-05-02T00:11:01;6.80;99.90
11538;DHT22;50159;49.426;11.182;2023-05-02T00:13:28;6.70;99.90
11538;DHT22;50159;49.426;11.182;2023-05-02T00:15:55;6.70;99.90
11538;DHT22;50159;49.426;11.182;2023-05-02T00:18:22;6.70;99.90
11538;DHT22;50159;49.426;11.182;2023-05-02T00:20:49;6.60;99.90
11538;DHT22;50159;49.426;11.182;2023-05-02T00:23:16;6.60;99.90
11538;DHT22;50159;49.426;11.182;2023-05-02T00:25:44;6.60;99.90
11538;DHT22;50159;49.426;11.182;2023-05-02T00:28:11;6.50;99.90
11538;DHT22;50159;49.426;11.182;2023-05-02T00:30:43;6.50;99.90
11538;DHT22;50159;49.426;11.182;2023-05-02T00:33:11;6.50;99.90
11538;DHT22;50159;49.426;11.182;2023-05-02T00:35:39;6.40;99.90
11538;DHT22;50159;49.426;11.182;2023-05-02T00:38:06;6.40;99.90
11538;DHT22;50159;49.426;11.182;2023-05-02T00:40:46;6.40;99.90
11538;DHT22;50159;49.426;11.182;2023-05-02T00:43:15;6.30;99.90
11538;DHT22;50159;49.426;11.182;2023-05-02T00:45:43;6.30;99.90
11538;DHT22;50159;49.426;11.182;2023-05-02T00:48:10;6.30;99.90
11538;DHT22;50159;49.426;11.182;2023-05-02T00:50:39;6.20;99.90
11538;DHT22;50159;49.426;11.182;2023-05-02T00:53:07;6.20;99.90
11538;DHT22;50159;49.426;11.182;2023-05-02T00:55:35;6.20;99.90
11538;DHT22;50159;49.426;11.182;2023-05-02T00:58:08;6.20;99.90
11538;DHT22;50159;49.426;11.182;2023-05-02T01:01:02;6.10;99.90
11538;DHT22;50159;49.426;11.182;2023-05-02T01:03:34;6.10;99.90
11538;DHT22;50159;49.426;11.182;2023-05-02T01:12:57;6.10;99.90
11538;DHT22;50159;49.426;11.182;2023-05-02T01:15:25;6.00;99.90
11538;DHT22;50159;49.426;11.182;2023-05-02T01:17:54;6.00;99.90
11538;DHT22;50159;49.426;11.182;2023-05-02T01:20:24;6.00;99.90
11538;DHT22;50159;49.426;11.182;2023-05-02T01:22:56;5.90;99.90
11538;DHT22;50159;49.426;11.182;2023-05-02T01:28:56;5.90;99.90
11538;DHT22;50159;49.426;11.182;2023-05-02T01:31:24;5.90;99.90
11538;DHT22;50159;49.426;11.182;2023-05-02T01:33:54;5.90;99.90
11538;DHT22;50159;49.426;11.182;2023-05-02T01:36:22;5.80;99.90
11538;DHT22;50159;49.426;11.182;2023-05-02T01:38:51;5.80;99.90
11538;DHT22;50159;49.426;11.182;2023-05-02T01:41:19;5.80;99.90
11538;DHT22;50159;49.426;11.182;2023-05-02T01:43:46;5.80;99.90
11538;DHT22;50159;49.426;11.182;2023-05-02T01:46:14;5.80;99.90
11538;DHT22;50159;49.426;11.182;2023-05-02T01:48:43;5.70;99.90
11538;DHT22;50159;49.426;11.182;2023-05-02T01:51:14;5.70;99.90
11538;DHT22;50159;49.426;11.182;2023-05-02T01:53:41;5.70;99.90
11538;DHT22;50159;49.426;11.182;2023-05-02T01:56:09;5.60;99.90
11538;DHT22;50159;49.426;11.182;2023-05-02T01:58:37;5.60;99.90
11538;DHT22;50159;49.426;11.182;2023-05-02T02:01:05;5.60;99.90
11538;DHT22;50159;49.426;11.182;2023-05-02T02:03:32;5.60;99.90
11538;DHT22;50159;49.426;11.182;2023-05-02T02:06:00;5.60;99.90
11538;DHT22;50159;49.426;11.182;2023-05-02T02:08:28;5.60;99.90
11538;DHT22;50159;49.426;11.182;2023-05-02T02:10:59;5.50;99.90
11538;DHT22;50159;49.426;11.182;2023-05-02T02:13:34;5.50;99.90
11538;DHT22;50159;49.426;11.182;2023-05-02T02:16:04;5.50;99.90
11538;DHT22;50159;49.426;11.182;2023-05-02T02:18:35;5.50;99.90
11538;DHT22;50159;49.426;11.182;2023-05-02T02:21:07;5.40;99.90
11538;DHT22;50159;49.426;11.182;2023-05-02T02:23:35;5.40;99.90
11538;DHT22;50159;49.426;11.182;2023-05-02T02:26:04;5.40;99.90
11538;DHT22;50159;49.426;11.182;2023-05-02T02:28:33;5.40;99.90
11538;DHT22;50159;49.426;11.182;2023-05-02T02:31:00;5.30;99.90
11538;DHT22;50159;49.426;11.182;2023-05-02T02:33:29;5.40;99.90
11538;DHT22;50159;49.426;11.182;2023-05-02T02:38:54;5.40;99.90
11538;DHT22;50159;49.426;11.182;2023-05-02T02:41:35;5.30;99.90
11538;DHT22;50159;49.426;11.182;2023-05-02T02:44:13;5.30;99.90
11538;DHT22;50159;49.426;11.182;2023-05-02T02:47:00;5.30;99.90
11538;DHT22;50159;49.426;11.182;2023-05-02T02:49:47;5.40;99.90
11538;DHT22;50159;49.426;11.182;2023-05-02T02:52:27;5.30;99.90
11538;DHT22;50159;49.426;11.182;2023-05-02T02:55:02;5.30;99.90
11538;DHT22;50159;49.426;11.182;2023-05-02T02:57:39;5.30;99.90
11538;DHT22;50159;49.426;11.182;2023-05-02T03:02:40;5.20;99.90
11538;DHT22;50159;49.426;11.182;2023-05-02T03:05:09;5.20;99.90
11538;DHT22;50159;49.426;11.182;2023-05-02T03:07:36;5.20;99.90
11538;DHT22;50159;49.426;11.182;2023-05-02T03:10:03;5.10;99.90
11538;DHT22;50159;49.426;11.182;2023-05-02T03:12:31;5.10;99.90
11538;DHT22;50159;49.426;11.182;2023-05-02T03:17:37;5.10;99.90
11538;DHT22;50159;49.426;11.182;2023-05-02T03:20:04;5.10;99.90
11538;DHT22;50159;49.426;11.182;2023-05-02T03:22:31;5.10;99.90
11538;DHT22;50159;49.426;11.182;2023-05-02T03:24:57;5.00;99.90
11538;DHT22;50159;49.426;11.182;2023-05-02T03:27:24;5.10;99.90
11538;DHT22;50159;49.426;11.182;2023-05-02T03:29:51;5.00;99.90
11538;DHT22;50159;49.426;11.182;2023-05-02T03:32:17;5.00;99.90
11538;DHT22;50159;49.426;11.182;2023-05-02T03:34:44;5.00;99.90
11538;DHT22;50159;49.426;11.182;2023-05-02T03:37:11;4.90;99.90
11538;DHT22;50159;49.426;11.182;2023-05-02T03:39:37;4.90;99.90
11538;DHT22;50159;49.426;11.182;2023-05-02T03:42:04;4.90;99.90
11538;DHT22;50159;49.426;11.182;2023-05-02T03:44:31;4.90;99.90
11538;DHT22;50159;49.426;11.182;2023-05-02T03:46:58;4.80;99.90
11538;DHT22;50159;49.426;11.182;2023-05-02T03:49:24;4.90;99.90
11538;DHT22;50159;49.426;11.182;2023-05-02T03:51:51;4.90;99.90
11538;DHT22;50159;49.426;11.182;2023-05-02T03:54:18;4.90;99.90
11538;DHT22;50159;49.426;11.182;2023-05-02T03:56:44;4.90;99.90
11538;DHT22;50159;49.426;11.182;2023-05-02T03:59:13;4.90;99.90
11538;DHT22;50159;49.426;11.182;2023-05-02T04:01:40;4.90;99.90
11538;DHT22;50159;49.426;11.182;2023-05-02T04:04:06;5.00;99.90
11538;DHT22;50159;49.426;11.182;2023-05-02T04:06:34;5.00;99.90
11538;DHT22;50159;49.426;11.182;2023-05-02T04:09:01;5.10;99.90
11538;DHT22;50159;49.426;11.182;2023-05-02T04:11:27;5.10;99.90
11538;DHT22;50159;49.426;11.182;2023-05-02T04:13:54;5.10;99.90
11538;DHT22;50159;49.426;11.182;2023-05-02T04:16:21;5.10;99.90
11538;DHT22;50159;49.426;11.182;2023-05-02T04:18:48;5.20;99.90
11538;DHT22;50159;49.426;11.182;2023-05-02T04:21:14;5.30;99.90
11538;DHT22;50159;49.426;11.182;2023-05-02T04:23:41;5.30;99.90
11538;DHT22;50159;49.426;11.182;2023-05-02T04:26:08;5.40;99.90
11538;DHT22;50159;49.426;11.182;2023-05-02T04:28:34;5.40;99.90
11538;DHT22;50159;49.426;11.182;2023-05-02T04:31:01;5.40;99.90
11538;DHT22;50159;49.426;11.182;2023-05-02T04:33:29;5.50;99.90
11538;DHT22;50159;49.426;11.182;2023-05-02T04:35:57;5.50;99.90
11538;DHT22;50159;49.426;11.182;2023-05-02T04:38:23;5.50;99.90
11538;DHT22;50159;49.426;11.182;2023-05-02T04:40:50;5.50;99.90
11538;DHT22;50159;49.426;11.182;2023-05-02T04:43:17;5.60;99.90
11538;DHT22;50159;49.426;11.182;2023-05-02T04:45:44;5.70;99.90
11538;DHT22;50159;49.426;11.182;2023-05-02T04:48:11;5.80;99.90
11538;DHT22;50159;49.426;11.182;2023-05-02T04:50:37;5.90;99.90
11538;DHT22;50159;49.426;11.182;2023-05-02T04:53:04;6.00;99.90
11538;DHT22;50159;49.426;11.182;2023-05-02T04:55:31;6.10;99.90
11538;DHT22;50159;49.426;11.182;2023-05-02T04:57:58;6.20;99.90
11538;DHT22;50159;49.426;11.182;2023-05-02T05:00:25;6.30;99.90
11538;DHT22;50159;49.426;11.182;2023-05-02T05:02:51;6.40;99.90
11538;DHT22;50159;49.426;11.182;2023-05-02T05:05:18;6.50;99.90
11538;DHT22;50159;49.426;11.182;2023-05-02T05:07:45;6.50;99.90
11538;DHT22;50159;49.426;11.182;2023-05-02T05:10:12;6.60;99.90
11538;DHT22;50159;49.426;11.182;2023-05-02T05:12:39;6.60;99.90
11538;DHT22;50159;49.426;11.182;2023-05-02T05:15:06;6.80;99.90
11538;DHT22;50159;49.426;11.182;2023-05-02T05:17:33;6.80;99.90
11538;DHT22;50159;49.426;11.182;2023-05-02T05:20:00;7.00;99.90
11538;DHT22;50159;49.426;11.182;2023-05-02T05:22:27;7.00;99.90
11538;DHT22;50159;49.426;11.182;2023-05-02T05:24:54;7.10;99.90
11538;DHT22;50159;49.426;11.182;2023-05-02T05:27:21;7.20;99.90
11538;DHT22;50159;49.426;11.182;2023-05-02T05:29:48;7.30;99.90
11538;DHT22;50159;49.426;11.182;2023-05-02T05:32:14;7.40;99.90
11538;DHT22;50159;49.426;11.182;2023-05-02T05:34:41;7.50;99.90
11538;DHT22;50159;49.426;11.182;2023-05-02T05:37:08;7.60;99.90
11538;DHT22;50159;49.426;11.182;2023-05-02T05:39:35;7.70;99.90
11538;DHT22;50159;49.426;11.182;2023-05-02T05:42:01;7.80;99.90
11538;DHT22;50159;49.426;11.182;2023-05-02T05:44:29;7.90;99.90
11538;DHT22;50159;49.426;11.182;2023-05-02T05:46:55;8.00;99.90
11538;DHT22;50159;49.426;11.182;2023-05-02T05:49:22;8.10;99.90
11538;DHT22;50159;49.426;11.182;2023-05-02T05:51:49;8.20;99.90
11538;DHT22;50159;49.426;11.182;2023-05-02T05:54:16;8.30;99.90
11538;DHT22;50159;49.426;11.182;2023-05-02T05:56:44;8.40;99.90
11538;DHT22;50159;49.426;11.182;2023-05-02T05:59:11;8.50;99.90
11538;DHT22;50159;49.426;11.182;2023-05-02T06:01:39;8.50;99.90
11538;DHT22;50159;49.426;11.182;2023-05-02T06:04:05;8.60;99.90
11538;DHT22;50159;49.426;11.182;2023-05-02T06:06:33;8.60;99.90
11538;DHT22;50159;49.426;11.182;2023-05-02T06:09:00;8.70;99.90
11538;DHT22;50159;49.426;11.182;2023-05-02T06:11:27;8.70;99.90
11538;DHT22;50159;49.426;11.182;2023-05-02T06:13:54;8.70;99.90
11538;DHT22;50159;49.426;11.182;2023-05-02T06:16:21;8.80;99.90
11538;DHT22;50159;49.426;11.182;2023-05-02T06:18:49;8.80;99.90
11538;DHT22;50159;49.426;11.182;2023-05-02T06:21:17;8.90;99.90
11538;DHT22;50159;49.426;11.182;2023-05-02T06:23:44;8.90;99.90
11538;DHT22;50159;49.426;11.182;2023-05-02T06:26:11;9.00;99.90
11538;DHT22;50159;49.426;11.182;2023-05-02T06:28:38;9.00;99.90
11538;DHT22;50159;49.426;11.182;2023-05-02T06:31:04;9.00;99.90
11538;DHT22;50159;49.426;11.182;2023-05-02T06:33:32;9.00;99.90
11538;DHT22;50159;49.426;11.182;2023-05-02T06:35:59;9.10;99.90
11538;DHT22;50159;49.426;11.182;2023-05-02T06:38:29;9.10;99.90
11538;DHT22;50159;49.426;11.182;2023-05-02T06:40:55;9.10;99.90
11538;DHT22;50159;49.426;11.182;2023-05-02T06:43:22;9.10;99.90
11538;DHT22;50159;49.426;11.182;2023-05-02T06:45:52;9.10;99.90
11538;DHT22;50159;49.426;11.182;2023-05-02T06:48:19;9.10;99.90
11538;DHT22;50159;49.426;11.182;2023-05-02T06:50:48;9.10;99.90
11538;DHT22;50159;49.426;11.182;2023-05-02T06:53:14;9.10;99.90
11538;DHT22;50159;49.426;11.182;2023-05-02T06:55:42;9.20;99.90
11538;DHT22;50159;49.426;11.182;2023-05-02T06:58:09;9.20;99.90
11538;DHT22;50159;49.426;11.182;2023-05-02T07:00:36;9.30;99.90
11538;DHT22;50159;49.426;11.182;2023-05-02T07:03:03;9.40;99.90
11538;DHT22;50159;49.426;11.182;2023-05-02T07:05:29;9.40;99.90
11538;DHT22;50159;49.426;11.182;2023-05-02T07:07:56;9.50;99.90
11538;DHT22;50159;49.426;11.182;2023-05-02T07:10:23;9.60;99.90
11538;DHT22;50159;49.426;11.182;2023-05-02T07:12:50;9.60;99.90
11538;DHT22;50159;49.426;11.182;2023-05-02T07:15:17;9.60;99.90
11538;DHT22;50159;49.426;11.182;2023-05-02T07:17:43;9.70;99.90
11538;DHT22;50159;49.426;11.182;2023-05-02T07:20:12;9.70;99.90
11538;DHT22;50159;49.426;11.182;2023-05-02T07:22:40;9.80;99.90
11538;DHT22;50159;49.426;11.182;2023-05-02T07:25:06;9.80;99.90
11538;DHT22;50159;49.426;11.182;2023-05-02T07:27:34;9.90;99.90
11538;DHT22;50159;49.426;11.182;2023-05-02T07:30:00;9.90;99.90
11538;DHT22;50159;49.426;11.182;2023-05-02T07:32:27;9.90;99.90
11538;DHT22;50159;49.426;11.182;2023-05-02T07:34:54;9.90;99.90
11538;DHT22;50159;49.426;11.182;2023-05-02T07:37:24;9.90;99.90
11538;DHT22;50159;49.426;11.182;2023-05-02T07:39:50;10.00;99.90
11538;DHT22;50159;49.426;11.182;2023-05-02T07:42:17;10.00;99.90
11538;DHT22;50159;49.426;11.182;2023-05-02T07:44:44;10.00;99.90
11538;DHT22;50159;49.426;11.182;2023-05-02T07:47:10;10.00;99.90
11538;DHT22;50159;49.426;11.182;2023-05-02T07:49:37;10.00;99.90
11538;DHT22;50159;49.426;11.182;2023-05-02T07:52:04;10.10;99.90
11538;DHT22;50159;49.426;11.182;2023-05-02T07:54:30;10.10;99.90
11538;DHT22;50159;49.426;11.182;2023-05-02T07:56:57;10.10;99.90
11538;DHT22;50159;49.426;11.182;2023-05-02T07:59:29;10.20;99.90
11538;DHT22;50159;49.426;11.182;2023-05-02T08:01:56;10.30;99.90
11538;DHT22;50159;49.426;11.182;2023-05-02T08:04:23;10.40;99.90
11538;DHT22;50159;49.426;11.182;2023-05-02T08:06:50;10.50;99.90
11538;DHT22;50159;49.426;11.182;2023-05-02T08:09:17;10.50;99.90
11538;DHT22;50159;49.426;11.182;2023-05-02T08:11:43;10.60;99.90
11538;DHT22;50159;49.426;11.182;2023-05-02T08:14:10;10.70;99.90
11538;DHT22;50159;49.426;11.182;2023-05-02T08:16:37;10.70;99.90
11538;DHT22;50159;49.426;11.182;2023-05-02T08:19:04;10.80;99.90
11538;DHT22;50159;49.426;11.182;2023-05-02T08:21:31;10.80;99.90
11538;DHT22;50159;49.426;11.182;2023-05-02T08:23:58;10.90;99.90
11538;DHT22;50159;49.426;11.182;2023-05-02T08:26:25;10.90;99.90
11538;DHT22;50159;49.426;11.182;2023-05-02T08:28:53;10.90;99.90
11538;DHT22;50159;49.426;11.182;2023-05-02T08:31:20;10.90;99.90
11538;DHT22;50159;49.426;11.182;2023-05-02T08:33:47;10.90;99.90
11538;DHT22;50159;49.426;11.182;2023-05-02T08:36:15;10.90;99.90
11538;DHT22;50159;49.426;11.182;2023-05-02T08:38:43;10.90;99.90
11538;DHT22;50159;49.426;11.182;2023-05-02T08:41:14;10.90;99.90
11538;DHT22;50159;49.426;11.182;2023-05-02T08:43:45;10.90;99.90
11538;DHT22;50159;49.426;11.182;2023-05-02T08:46:14;10.90;99.90
11538;DHT22;50159;49.426;11.182;2023-05-02T08:48:43;10.90;99.90
11538;DHT22;50159;49.426;11.182;2023-05-02T08:51:12;10.90;99.90
11538;DHT22;50159;49.426;11.182;2023-05-02T08:53:40;11.00;99.90
11538;DHT22;50159;49.426;11.182;2023-05-02T08:56:09;11.00;99.90
11538;DHT22;50159;49.426;11.182;2023-05-02T08:58:38;11.10;99.90
11538;DHT22;50159;49.426;11.182;2023-05-02T09:01:15;11.20;99.90
11538;DHT22;50159;49.426;11.182;2023-05-02T09:03:44;11.30;99.90
11538;DHT22;50159;49.426;11.182;2023-05-02T09:06:13;11.30;99.90
11538;DHT22;50159;49.426;11.182;2023-05-02T09:08:42;11.40;99.90
11538;DHT22;50159;49.426;11.182;2023-05-02T09:11:10;11.60;99.90
11538;DHT22;50159;49.426;11.182;2023-05-02T09:13:47;11.60;99.90
11538;DHT22;50159;49.426;11.182;2023-05-02T09:16:15;11.60;99.90
11538;DHT22;50159;49.426;11.182;2023-05-02T09:18:44;11.70;99.90
11538;DHT22;50159;49.426;11.182;2023-05-02T09:21:14;11.70;99.90
11538;DHT22;50159;49.426;11.182;2023-05-02T09:23:49;11.80;99.90
11538;DHT22;50159;49.426;11.182;2023-05-02T09:28:55;12.00;99.90
11538;DHT22;50159;49.426;11.182;2023-05-02T09:31:27;12.50;99.90
11538;DHT22;50159;49.426;11.182;2023-05-02T09:34:16;12.80;99.90
11538;DHT22;50159;49.426;11.182;2023-05-02T09:36:48;12.70;99.90
11538;DHT22;50159;49.426;11.182;2023-05-02T09:39:22;12.70;99.90
11538;DHT22;50159;49.426;11.182;2023-05-02T09:41:51;12.90;99.90
11538;DHT22;50159;49.426;11.182;2023-05-02T09:44:23;13.30;99.90
11538;DHT22;50159;49.426;11.182;2023-05-02T09:47:06;13.40;99.90
11538;DHT22;50159;49.426;11.182;2023-05-02T09:52:14;13.70;99.90
11538;DHT22;50159;49.426;11.182;2023-05-02T09:54:41;13.80;99.90
11538;DHT22;50159;49.426;11.182;2023-05-02T09:57:08;14.10;99.90
11538;DHT22;50159;49.426;11.182;2023-05-02T09:59:36;14.40;99.90
11538;DHT22;50159;49.426;11.182;2023-05-02T10:02:05;14.70;99.90
11538;DHT22;50159;49.426;11.182;2023-05-02T10:04:33;14.80;99.90
11538;DHT22;50159;49.426;11.182;2023-05-02T10:07:01;15.00;99.90
11538;DHT22;50159;49.426;11.182;2023-05-02T10:09:29;15.30;99.90
11538;DHT22;50159;49.426;11.182;2023-05-02T10:12:01;15.70;99.90
11538;DHT22;50159;49.426;11.182;2023-05-02T10:14:38;16.00;99.90
11538;DHT22;50159;49.426;11.182;2023-05-02T10:17:21;16.10;99.90
11538;DHT22;50159;49.426;11.182;2023-05-02T10:19:59;16.10;99.90
11538;DHT22;50159;49.426;11.182;2023-05-02T10:22:26;16.30;99.90
11538;DHT22;50159;49.426;11.182;2023-05-02T10:24:53;16.50;99.90
11538;DHT22;50159;49.426;11.182;2023-05-02T10:27:23;16.50;98.50
11538;DHT22;50159;49.426;11.182;2023-05-02T10:29:50;16.60;98.10
11538;DHT22;50159;49.426;11.182;2023-05-02T10:32:18;16.50;97.20
11538;DHT22;50159;49.426;11.182;2023-05-02T10:34:47;16.50;96.70
11538;DHT22;50159;49.426;11.182;2023-05-02T10:37:15;16.40;95.90
11538;DHT22;50159;49.426;11.182;2023-05-02T10:39:44;16.30;95.20
11538;DHT22;50159;49.426;11.182;2023-05-02T10:42:12;16.20;95.20
11538;DHT22;50159;49.426;11.182;2023-05-02T10:44:40;16.20;95.70
11538;DHT22;50159;49.426;11.182;2023-05-02T10:47:19;16.20;95.70
11538;DHT22;50159;49.426;11.182;2023-05-02T10:50:00;16.50;97.20
11538;DHT22;50159;49.426;11.182;2023-05-02T10:52:29;16.70;94.90
11538;DHT22;50159;49.426;11.182;2023-05-02T10:55:19;16.80;93.30
11538;DHT22;50159;49.426;11.182;2023-05-02T11:00:26;16.90;92.10
11538;DHT22;50159;49.426;11.182;2023-05-02T11:02:53;17.00;91.80
11538;DHT22;50159;49.426;11.182;2023-05-02T11:05:21;17.00;91.30
11538;DHT22;50159;49.426;11.182;2023-05-02T11:07:48;17.20;88.40
11538;DHT22;50159;49.426;11.182;2023-05-02T11:12:47;17.60;88.00
11538;DHT22;50159;49.426;11.182;2023-05-02T11:20:24;17.90;78.70
11538;DHT22;50159;49.426;11.182;2023-05-02T11:22:52;17.90;80.20
11538;DHT22;50159;49.426;11.182;2023-05-02T11:25:40;18.10;79.50
11538;DHT22;50159;49.426;11.182;2023-05-02T11:31:06;17.80;76.70
11538;DHT22;50159;49.426;11.182;2023-05-02T11:33:33;17.70;79.10
11538;DHT22;50159;49.426;11.182;2023-05-02T11:36:00;17.50;79.20
11538;DHT22;50159;49.426;11.182;2023-05-02T11:38:35;17.70;80.80
11538;DHT22;50159;49.426;11.182;2023-05-02T11:41:02;17.70;79.80
11538;DHT22;50159;49.426;11.182;2023-05-02T11:43:30;17.80;79.70
11538;DHT22;50159;49.426;11.182;2023-05-02T11:45:59;17.70;80.90
11538;DHT22;50159;49.426;11.182;2023-05-02T11:48:28;17.60;80.90
11538;DHT22;50159;49.426;11.182;2023-05-02T11:50:57;17.40;78.90
11538;DHT22;50159;49.426;11.182;2023-05-02T11:53:28;17.10;81.00
11538;DHT22;50159;49.426;11.182;2023-05-02T11:55:56;17.00;81.80
11538;DHT22;50159;49.426;11.182;2023-05-02T11:58:25;16.80;82.00
11538;DHT22;50159;49.426;11.182;2023-05-02T12:00:55;16.80;83.40
11538;DHT22;50159;49.426;11.182;2023-05-02T12:03:29;17.00;84.90
11538;DHT22;50159;49.426;11.182;2023-05-02T12:06:11;17.20;84.80
11538;DHT22;50159;49.426;11.182;2023-05-02T12:08:39;17.40;82.90
11538;DHT22;50159;49.426;11.182;2023-05-02T12:11:07;18.10;82.60
11538;DHT22;50159;49.426;11.182;2023-05-02T12:13:34;18.70;81.00
11538;DHT22;50159;49.426;11.182;2023-05-02T12:16:10;19.30;79.10
11538;DHT22;50159;49.426;11.182;2023-05-02T12:18:37;19.30;74.40
11538;DHT22;50159;49.426;11.182;2023-05-02T12:21:04;19.10;73.40
11538;DHT22;50159;49.426;11.182;2023-05-02T12:23:31;18.80;72.00
11538;DHT22;50159;49.426;11.182;2023-05-02T12:26:15;18.40;72.30
11538;DHT22;50159;49.426;11.182;2023-05-02T12:28:50;18.10;73.40
11538;DHT22;50159;49.426;11.182;2023-05-02T12:31:17;17.70;74.50
11538;DHT22;50159;49.426;11.182;2023-05-02T12:33:45;17.50;76.10
11538;DHT22;50159;49.426;11.182;2023-05-02T12:36:13;17.30;74.80
11538;DHT22;50159;49.426;11.182;2023-05-02T12:38:47;17.10;75.90
11538;DHT22;50159;49.426;11.182;2023-05-02T12:41:14;17.00;76.20
11538;DHT22;50159;49.426;11.182;2023-05-02T12:43:47;17.00;76.70
11538;DHT22;50159;49.426;11.182;2023-05-02T12:46:15;17.10;77.00
11538;DHT22;50159;49.426;11.182;2023-05-02T12:48:42;17.30;76.40
11538;DHT22;50159;49.426;11.182;2023-05-02T12:51:21;17.60;77.90
11538;DHT22;50159;49.426;11.182;2023-05-02T12:53:49;18.40;74.70
11538;DHT22;50159;49.426;11.182;2023-05-02T12:56:16;19.10;72.20
11538;DHT22;50159;49.426;11.182;2023-05-02T12:58:44;19.80;70.60
11538;DHT22;50159;49.426;11.182;2023-05-02T13:01:12;20.40;67.00
11538;DHT22;50159;49.426;11.182;2023-05-02T13:03:39;20.90;65.70
11538;DHT22;50159;49.426;11.182;2023-05-02T13:06:06;21.00;58.60
11538;DHT22;50159;49.426;11.182;2023-05-02T13:08:34;20.60;55.00
11538;DHT22;50159;49.426;11.182;2023-05-02T13:11:02;20.00;54.30
11538;DHT22;50159;49.426;11.182;2023-05-02T13:13:29;19.60;57.80
11538;DHT22;50159;49.426;11.182;2023-05-02T13:15:56;19.50;59.30
11538;DHT22;50159;49.426;11.182;2023-05-02T13:18:23;19.70;61.10
11538;DHT22;50159;49.426;11.182;2023-05-02T13:20:50;19.50;60.50
11538;DHT22;50159;49.426;11.182;2023-05-02T13:23:17;19.20;61.20
11538;DHT22;50159;49.426;11.182;2023-05-02T13:25:43;18.80;61.80
11538;DHT22;50159;49.426;11.182;2023-05-02T13:28:10;18.40;61.70
11538;DHT22;50159;49.426;11.182;2023-05-02T13:30:37;18.00;63.60
11538;DHT22;50159;49.426;11.182;2023-05-02T13:33:03;17.80;64.90
11538;DHT22;50159;49.426;11.182;2023-05-02T13:35:30;17.40;65.60
11538;DHT22;50159;49.426;11.182;2023-05-02T13:38:00;17.10;68.10
11538;DHT22;50159;49.426;11.182;2023-05-02T13:40:27;16.80;68.50
11538;DHT22;50159;49.426;11.182;2023-05-02T13:42:53;16.60;68.90
11538;DHT22;50159;49.426;11.182;2023-05-02T13:45:20;16.40;70.30
11538;DHT22;50159;49.426;11.182;2023-05-02T13:47:47;16.20;70.30
11538;DHT22;50159;49.426;11.182;2023-05-02T13:50:14;16.00;71.20
11538;DHT22;50159;49.426;11.182;2023-05-02T13:52:40;15.80;71.50
11538;DHT22;50159;49.426;11.182;2023-05-02T13:55:07;15.70;72.50
11538;DHT22;50159;49.426;11.182;2023-05-02T13:57:34;15.60;73.10
11538;DHT22;50159;49.426;11.182;2023-05-02T14:00:01;15.50;74.20
11538;DHT22;50159;49.426;11.182;2023-05-02T14:02:28;15.50;74.70
11538;DHT22;50159;49.426;11.182;2023-05-02T14:04:55;15.40;75.10
11538;DHT22;50159;49.426;11.182;2023-05-02T14:07:22;15.30;74.70
11538;DHT22;50159;49.426;11.182;2023-05-02T14:09:48;15.30;74.80
11538;DHT22;50159;49.426;11.182;2023-05-02T14:12:15;15.30;76.70
11538;DHT22;50159;49.426;11.182;2023-05-02T14:14:42;15.20;78.10
11538;DHT22;50159;49.426;11.182;2023-05-02T14:17:08;15.20;79.60
11538;DHT22;50159;49.426;11.182;2023-05-02T14:19:35;15.30;81.30
11538;DHT22;50159;49.426;11.182;2023-05-02T14:22:02;15.50;82.80
11538;DHT22;50159;49.426;11.182;2023-05-02T14:24:28;17.00;85.20
11538;DHT22;50159;49.426;11.182;2023-05-02T14:26:55;19.30;75.70
11538;DHT22;50159;49.426;11.182;2023-05-02T14:29:23;21.40;62.60
11538;DHT22;50159;49.426;11.182;2023-05-02T14:31:50;23.40;56.80
11538;DHT22;50159;49.426;11.182;2023-05-02T14:34:17;25.10;50.90
11538;DHT22;50159;49.426;11.182;2023-05-02T14:36:43;26.20;47.10
11538;DHT22;50159;49.426;11.182;2023-05-02T14:39:10;27.70;43.40
11538;DHT22;50159;49.426;11.182;2023-05-02T14:41:37;28.60;39.80
11538;DHT22;50159;49.426;11.182;2023-05-02T14:44:03;29.40;37.70
11538;DHT22;50159;49.426;11.182;2023-05-02T14:46:30;30.00;34.90
11538;DHT22;50159;49.426;11.182;2023-05-02T14:48:57;30.20;32.50
11538;DHT22;50159;49.426;11.182;2023-05-02T14:51:23;30.10;31.90
11538;DHT22;50159;49.426;11.182;2023-05-02T14:53:50;30.00;32.30
11538;DHT22;50159;49.426;11.182;2023-05-02T14:56:17;29.50;32.40
11538;DHT22;50159;49.426;11.182;2023-05-02T14:58:44;28.60;33.10
11538;DHT22;50159;49.426;11.182;2023-05-02T15:01:18;27.80;34.40
11538;DHT22;50159;49.426;11.182;2023-05-02T15:03:46;27.60;35.00
11538;DHT22;50159;49.426;11.182;2023-05-02T15:06:31;27.30;35.60
11538;DHT22;50159;49.426;11.182;2023-05-02T15:08:58;26.80;35.60
11538;DHT22;50159;49.426;11.182;2023-05-02T15:11:24;26.20;36.30
11538;DHT22;50159;49.426;11.182;2023-05-02T15:13:51;25.90;37.40
11538;DHT22;50159;49.426;11.182;2023-05-02T15:16:18;25.70;37.40
11538;DHT22;50159;49.426;11.182;2023-05-02T15:18:45;25.50;36.70
11538;DHT22;50159;49.426;11.182;2023-05-02T15:21:11;24.90;37.20
11538;DHT22;50159;49.426;11.182;2023-05-02T15:23:38;24.50;38.60
11538;DHT22;50159;49.426;11.182;2023-05-02T15:26:05;24.10;38.20
11538;DHT22;50159;49.426;11.182;2023-05-02T15:28:32;23.80;39.40
11538;DHT22;50159;49.426;11.182;2023-05-02T15:30:58;23.60;40.90
11538;DHT22;50159;49.426;11.182;2023-05-02T15:33:25;23.60;41.50
11538;DHT22;50159;49.426;11.182;2023-05-02T15:35:56;23.50;42.10
11538;DHT22;50159;49.426;11.182;2023-05-02T15:38:26;23.60;43.30
11538;DHT22;50159;49.426;11.182;2023-05-02T15:40:57;23.60;42.60
11538;DHT22;50159;49.426;11.182;2023-05-02T15:43:25;23.50;42.40
11538;DHT22;50159;49.426;11.182;2023-05-02T15:45:53;23.40;42.40
11538;DHT22;50159;49.426;11.182;2023-05-02T15:48:21;23.30;42.30
11538;DHT22;50159;49.426;11.182;2023-05-02T15:50:48;23.20;43.10
11538;DHT22;50159;49.426;11.182;2023-05-02T15:53:15;23.00;43.20
11538;DHT22;50159;49.426;11.182;2023-05-02T15:55:42;22.90;43.80
11538;DHT22;50159;49.426;11.182;2023-05-02T15:58:11;22.90;44.10
11538;DHT22;50159;49.426;11.182;2023-05-02T16:00:38;22.80;43.50
11538;DHT22;50159;49.426;11.182;2023-05-02T16:03:05;22.90;43.10
11538;DHT22;50159;49.426;11.182;2023-05-02T16:05:32;22.90;42.40
11538;DHT22;50159;49.426;11.182;2023-05-02T16:07:59;23.00;42.90